Balikesir, Turkey
Current Conditions -  °F | °C
As of 3:50 AM on Saturday 20 Dec 2014 (Local Time) from LTBF Reporting Station
Haze Haze  
Wind Chill: 46°   Ceiling: 1000
Heat Index: 46°   Visibility: 2.8mi
Dew Point: 43°   Wind: 1mph
Humidity: 87%   Direction: NA
Pressure: 30.21"   Gusts: NA
Location:  39.65°N, 27.88°E
Report Text: LTBF 200050Z VRB01KT 4500 BR BKN010 08/06 Q1023 NOSIG
Loading
Personal Weather Stations






























Interactive Weather Map New forecast layout! Learn more

10-Day Weather Forecast

Advertisements
Track Severe Weather on mobile